Hungry Horse, Montana
Current Conditions -  °F | °C
As of 10:55 AM on Thursday 18 Dec 2014 (Local Time) from KGPI Reporting Station
Haze Haze  
Wind Chill: 31°   Ceiling: 4000
Heat Index: 31°   Visibility: 6mi
Dew Point: 28°   Wind: 0mph
Humidity: 89%   Direction: NA
Pressure: 30"   Gusts: NA
Location:  48.39°N, 114.06°W
Report Text: KGPI 181755Z 00000KT 6SM BR FEW009 BKN040 OVC060 M01/M02 A3000 RMK AO2 SLP187 T10061022 11006 21017 51009
Loading
Personal Weather Stations






























Interactive Weather Map New forecast layout! Learn more

10-Day Weather Forecast

Advertisements
Track Severe Weather on mobile